createdAt,value
2023-05-05T00:02:19.992Z,97048.09
2023-05-05T00:04:46.500Z,97045.50
2023-05-05T00:07:12.920Z,97049.78
2023-05-05T00:09:39.435Z,97043.84
2023-05-05T00:12:06.249Z,97047.97
2023-05-05T00:14:32.757Z,97045.84
2023-05-05T00:16:59.355Z,97054.03
2023-05-05T00:19:25.829Z,97059.28
2023-05-05T00:21:52.297Z,97052.56
2023-05-05T00:24:19.860Z,97049.44
2023-05-05T00:26:46.318Z,97061.09
2023-05-05T00:29:15.801Z,97056.03
2023-05-05T00:31:43.419Z,97045.19
2023-05-05T00:34:09.907Z,97049.28
2023-05-05T00:36:36.454Z,97047.81
2023-05-05T00:39:03.175Z,97054.03
2023-05-05T00:41:31.660Z,97057.13
2023-05-05T00:44:03.523Z,97046.13
2023-05-05T00:46:31.954Z,97036.44
2023-05-05T00:49:00.912Z,97037.78
2023-05-05T00:51:31.392Z,97033.00
2023-05-05T00:53:58.212Z,97037.41
2023-05-05T00:56:27.333Z,97034.66
2023-05-05T00:58:54.065Z,97039.19
2023-05-05T01:01:21.658Z,97037.16
2023-05-05T01:03:48.260Z,97033.69
2023-05-05T01:06:38.686Z,97034.19
2023-05-05T01:09:27.079Z,97035.50
2023-05-05T01:12:12.154Z,97039.47
2023-05-05T01:14:47.273Z,97035.34
2023-05-05T01:17:17.986Z,97036.31
2023-05-05T01:20:12.014Z,97034.88
2023-05-05T01:22:45.236Z,97026.19
2023-05-05T01:26:00.613Z,97031.91
2023-05-05T01:28:53.805Z,97034.75
2023-05-05T01:31:41.646Z,97031.44
2023-05-05T01:34:12.396Z,97034.66
2023-05-05T01:36:49.461Z,97018.22
2023-05-05T01:39:17.032Z,97032.59
2023-05-05T01:41:47.813Z,97012.66
2023-05-05T01:44:16.824Z,97020.06
2023-05-05T01:46:43.353Z,97017.78
2023-05-05T01:49:11.598Z,97030.22
2023-05-05T01:51:39.770Z,97022.69
2023-05-05T01:54:08.472Z,97030.47
2023-05-05T01:56:38.783Z,97021.03
2023-05-05T01:59:07.074Z,97034.13
2023-05-05T02:01:37.829Z,97022.31
2023-05-05T02:04:07.166Z,97020.97
2023-05-05T02:06:35.330Z,97025.44
2023-05-05T02:09:04.224Z,97017.09
2023-05-05T02:11:31.253Z,97044.88
2023-05-05T02:14:00.363Z,97006.91
2023-05-05T02:16:27.970Z,97030.94
2023-05-05T02:19:06.186Z,97037.44
2023-05-05T02:21:33.940Z,97028.50
2023-05-05T02:24:01.327Z,97029.94
2023-05-05T02:26:39.995Z,97025.78
2023-05-05T02:29:19.057Z,97036.69
2023-05-05T02:31:49.571Z,97041.97
2023-05-05T02:34:22.554Z,97038.44
2023-05-05T02:36:52.720Z,97021.03
2023-05-05T02:39:32.864Z,97040.06
2023-05-05T02:42:03.453Z,97031.94
2023-05-05T02:44:36.304Z,97030.28
2023-05-05T02:47:04.884Z,97027.69
2023-05-05T02:49:31.454Z,97029.03
2023-05-05T02:51:58.100Z,97022.00
2023-05-05T02:54:24.647Z,97021.94
2023-05-05T02:56:54.418Z,97022.69
2023-05-05T02:59:38.237Z,97023.50
2023-05-05T03:02:40.097Z,97026.88
2023-05-05T03:05:11.138Z,97016.94
2023-05-05T03:08:02.127Z,97029.63
2023-05-05T03:10:42.133Z,97029.50
2023-05-05T03:13:11.544Z,97023.69
2023-05-05T03:15:43.139Z,97023.69
2023-05-05T03:18:11.634Z,97026.06
2023-05-05T03:20:40.562Z,97014.41
2023-05-05T03:23:07.611Z,97022.00
2023-05-05T03:25:49.463Z,97018.19
2023-05-05T03:28:18.217Z,97022.41
2023-05-05T03:30:46.824Z,97019.72
2023-05-05T03:33:13.268Z,97018.59
2023-05-05T03:35:39.750Z,97020.59
2023-05-05T03:38:10.492Z,97020.16
2023-05-05T03:40:44.095Z,97021.88
2023-05-05T03:43:11.381Z,97028.38
2023-05-05T03:45:38.692Z,97033.31
2023-05-05T03:48:06.067Z,97031.38
2023-05-05T03:50:32.553Z,97025.47
2023-05-05T03:53:04.874Z,97013.88
2023-05-05T03:55:31.356Z,97022.47
2023-05-05T03:58:11.182Z,97033.75
2023-05-05T04:00:37.723Z,97032.22
2023-05-05T04:03:04.352Z,97026.66
2023-05-05T04:05:31.049Z,97017.03
2023-05-05T04:07:58.350Z,97019.19
2023-05-05T04:10:24.941Z,97025.78
2023-05-05T04:12:51.539Z,97021.34
2023-05-05T04:15:18.152Z,97012.75
2023-05-05T04:17:44.658Z,97019.72
2023-05-05T04:20:11.404Z,97023.44
2023-05-05T04:22:44.856Z,97025.41
2023-05-05T04:25:11.378Z,97015.13
2023-05-05T04:27:47.073Z,97023.00
2023-05-05T04:30:14.997Z,97017.16
2023-05-05T04:32:45.733Z,97028.66
2023-05-05T04:35:12.261Z,97012.53
2023-05-05T04:37:38.703Z,97027.03
2023-05-05T04:40:08.160Z,97024.56
2023-05-05T04:42:35.018Z,97017.88
2023-05-05T04:45:01.568Z,97012.63
2023-05-05T04:47:29.366Z,97014.72
2023-05-05T04:49:56.092Z,97027.41
2023-05-05T04:52:22.640Z,97006.75
2023-05-05T04:54:50.412Z,97018.19
2023-05-05T04:57:16.905Z,97018.53
2023-05-05T04:59:43.373Z,97017.09
2023-05-05T05:02:10.294Z,97029.31
2023-05-05T05:04:37.104Z,97035.06
2023-05-05T05:07:03.616Z,97024.97
2023-05-05T05:09:30.132Z,97033.22
2023-05-05T05:12:01.028Z,97029.34
2023-05-05T05:14:28.191Z,97022.59
2023-05-05T05:16:54.785Z,97000.63
2023-05-05T05:19:22.401Z,97011.25
2023-05-05T05:21:48.816Z,97006.13
2023-05-05T05:24:16.302Z,97017.38
2023-05-05T05:26:42.746Z,97009.34
2023-05-05T05:29:09.203Z,97015.47
2023-05-05T05:31:36.936Z,97011.09
2023-05-05T05:34:03.509Z,97016.59
2023-05-05T05:36:32.143Z,97014.53
2023-05-05T05:38:58.587Z,97016.06
2023-05-05T05:41:28.070Z,97018.94
2023-05-05T05:43:54.565Z,97037.66
2023-05-05T05:46:21.372Z,97030.00
2023-05-05T05:48:47.950Z,97024.06
2023-05-05T05:51:14.402Z,97035.63
2023-05-05T05:53:41.102Z,97030.13
2023-05-05T05:56:08.019Z,97015.53
2023-05-05T05:58:34.543Z,97017.34
2023-05-05T06:01:01.059Z,97012.28
2023-05-05T06:03:33.514Z,97014.50
2023-05-05T06:06:00.072Z,97014.13
2023-05-05T06:08:32.681Z,97014.50
2023-05-05T06:11:00.573Z,97019.16
2023-05-05T06:13:27.166Z,97005.25
2023-05-05T06:15:53.968Z,97003.63
2023-05-05T06:18:20.505Z,97009.34
2023-05-05T06:20:50.356Z,97000.97
2023-05-05T06:23:17.057Z,97014.75
2023-05-05T06:25:46.761Z,97008.28
2023-05-05T06:28:13.239Z,97006.81
2023-05-05T06:30:39.720Z,97006.41
2023-05-05T06:33:07.177Z,97002.91
2023-05-05T06:35:33.769Z,97009.22
2023-05-05T06:38:00.276Z,97015.94
2023-05-05T06:40:27.823Z,97029.13
2023-05-05T06:42:54.269Z,97027.94
2023-05-05T06:45:20.812Z,97028.03
2023-05-05T06:47:47.371Z,97033.19
2023-05-05T06:50:16.078Z,97045.94
2023-05-05T06:52:42.587Z,97055.78
2023-05-05T06:55:11.298Z,97044.97
2023-05-05T06:57:37.760Z,97037.38
2023-05-05T07:00:13.933Z,97036.31
2023-05-05T07:02:41.670Z,97035.66
2023-05-05T07:05:08.240Z,97035.72
2023-05-05T07:07:35.661Z,97036.25
2023-05-05T07:10:02.117Z,97027.16
2023-05-05T07:12:33.652Z,97026.75
2023-05-05T07:15:12.221Z,97035.41
2023-05-05T07:17:38.838Z,97029.28
2023-05-05T07:20:12.146Z,97028.69
2023-05-05T07:22:38.653Z,97023.28
2023-05-05T07:25:11.929Z,97007.28
2023-05-05T07:27:39.284Z,97015.78
2023-05-05T07:30:10.933Z,97008.59
2023-05-05T07:32:43.033Z,97016.63
2023-05-05T07:35:09.709Z,97010.41
2023-05-05T07:37:36.533Z,97018.78
2023-05-05T07:40:03.051Z,97009.81
2023-05-05T07:42:30.679Z,97007.94
2023-05-05T07:44:57.125Z,97004.34
2023-05-05T07:47:24.144Z,97003.13
2023-05-05T07:49:51.068Z,96998.44
2023-05-05T07:52:17.607Z,96991.38
2023-05-05T07:54:45.279Z,97002.88
2023-05-05T07:57:11.853Z,97005.63
2023-05-05T07:59:41.108Z,96997.72
2023-05-05T08:02:07.642Z,97000.97
2023-05-05T08:04:34.477Z,96989.16
2023-05-05T08:07:01.126Z,96989.00
2023-05-05T08:09:27.606Z,96992.81
2023-05-05T08:11:54.031Z,96985.25
2023-05-05T08:14:21.579Z,96994.59
2023-05-05T08:16:48.024Z,97000.25
2023-05-05T08:19:27.637Z,96989.16
2023-05-05T08:22:01.555Z,96985.31
2023-05-05T08:24:40.723Z,96994.16
2023-05-05T08:27:07.210Z,96986.00
2023-05-05T08:29:33.650Z,96980.00
2023-05-05T08:32:04.147Z,96979.81
2023-05-05T08:34:32.620Z,96971.81
2023-05-05T08:36:59.337Z,96978.06
2023-05-05T08:39:26.819Z,96986.38
2023-05-05T08:41:53.337Z,96981.81
2023-05-05T08:44:21.939Z,96983.44
2023-05-05T08:46:56.130Z,96987.75
2023-05-05T08:49:23.027Z,96988.25
2023-05-05T08:51:52.224Z,96986.06
2023-05-05T08:54:25.781Z,96976.19
2023-05-05T08:57:02.983Z,96974.88
2023-05-05T08:59:32.947Z,96975.03
2023-05-05T09:02:00.691Z,96965.81
2023-05-05T09:04:27.634Z,96973.69
2023-05-05T09:06:54.169Z,96977.47
2023-05-05T09:09:21.428Z,96971.00
2023-05-05T09:11:48.429Z,96970.31
2023-05-05T09:14:15.052Z,96968.81
2023-05-05T09:16:44.174Z,96958.91
2023-05-05T09:19:11.036Z,96954.41
2023-05-05T09:21:46.362Z,96950.91
2023-05-05T09:28:46.573Z,96949.41
2023-05-05T09:31:15.908Z,96946.69
2023-05-05T09:33:43.549Z,96944.81
2023-05-05T09:36:10.115Z,96949.50
2023-05-05T09:38:36.902Z,96936.78
2023-05-05T09:41:05.328Z,96937.34
2023-05-05T09:43:49.920Z,96938.31
2023-05-05T09:46:16.700Z,96946.63
2023-05-05T09:48:43.138Z,96936.44
2023-05-05T09:51:09.779Z,96943.25
2023-05-05T09:53:42.460Z,96940.31
2023-05-05T09:56:09.047Z,96943.59
2023-05-05T09:58:36.593Z,96940.94
2023-05-05T10:01:03.173Z,96948.28
2023-05-05T10:03:31.138Z,96948.69
2023-05-05T10:05:59.712Z,96962.75
2023-05-05T10:08:33.565Z,96946.09
2023-05-05T10:11:04.548Z,96943.94
2023-05-05T10:13:35.973Z,96959.47
2023-05-05T10:16:04.360Z,96955.09
2023-05-05T10:18:32.572Z,96949.16
2023-05-05T10:21:03.827Z,96941.75
2023-05-05T10:23:39.262Z,96947.59
2023-05-05T10:26:08.062Z,96955.78
2023-05-05T10:28:46.841Z,96940.19
2023-05-05T10:31:27.434Z,96941.63
2023-05-05T10:33:58.867Z,96934.84
2023-05-05T10:36:27.923Z,96925.47
2023-05-05T10:38:59.284Z,96933.31
2023-05-05T10:41:33.389Z,96927.34
2023-05-05T10:44:03.654Z,96927.41
2023-05-05T10:46:31.664Z,96905.91
2023-05-05T10:49:43.016Z,96920.91
2023-05-05T10:52:58.778Z,96912.63
2023-05-05T10:55:48.092Z,96905.38
2023-05-05T10:58:50.912Z,96884.59
2023-05-05T11:01:34.059Z,96883.25
2023-05-05T11:04:17.125Z,96881.94
2023-05-05T11:07:10.435Z,96890.31
2023-05-05T11:10:01.616Z,96872.56
2023-05-05T11:12:31.760Z,96880.03
2023-05-05T11:15:26.050Z,96881.97
2023-05-05T11:17:53.927Z,96875.25
2023-05-05T11:20:35.929Z,96890.56
2023-05-05T11:23:06.615Z,96884.91
2023-05-05T11:25:37.413Z,96877.38
2023-05-05T11:28:12.034Z,96870.94
2023-05-05T11:31:04.848Z,96872.03
2023-05-05T11:33:36.943Z,96863.91
2023-05-05T11:36:08.012Z,96862.31
2023-05-05T11:39:20.972Z,96854.25
2023-05-05T11:42:21.718Z,96855.84
2023-05-05T11:44:56.398Z,96859.09
2023-05-05T11:47:28.034Z,96851.53
2023-05-05T11:49:55.597Z,96848.25
2023-05-05T11:52:24.653Z,96845.56
2023-05-05T11:54:51.772Z,96842.84
2023-05-05T11:57:21.733Z,96831.59
2023-05-05T11:59:58.877Z,96841.81
2023-05-05T12:02:28.545Z,96840.22
2023-05-05T12:04:56.111Z,96827.63
2023-05-05T12:07:26.194Z,96823.50
2023-05-05T12:09:55.073Z,96816.84
2023-05-05T12:12:35.697Z,96812.44
2023-05-05T12:15:02.379Z,96814.34
2023-05-05T12:17:46.040Z,96807.88
2023-05-05T12:20:13.896Z,96805.44
2023-05-05T12:22:41.657Z,96787.81
2023-05-05T12:25:08.983Z,96793.59
2023-05-05T12:27:35.885Z,96793.28
2023-05-05T12:30:15.348Z,96798.19
2023-05-05T12:32:42.293Z,96791.31
2023-05-05T12:35:16.028Z,96786.56
2023-05-05T12:37:43.259Z,96791.50
2023-05-05T12:40:42.468Z,96801.38
2023-05-05T12:43:08.964Z,96788.97
2023-05-05T12:45:36.549Z,96792.25
2023-05-05T12:48:22.166Z,96791.72
2023-05-05T12:50:48.615Z,96791.69
2023-05-05T12:53:25.688Z,96793.16
2023-05-05T12:55:55.322Z,96795.09
2023-05-05T12:58:22.557Z,96789.69
2023-05-05T13:01:08.242Z,96788.91
2023-05-05T13:03:34.763Z,96780.28
2023-05-05T13:06:01.324Z,96789.97
2023-05-05T13:08:46.262Z,96786.22
2023-05-05T13:11:12.793Z,96796.75
2023-05-05T13:13:42.154Z,96797.81
2023-05-05T13:16:08.733Z,96795.13
2023-05-05T13:18:48.958Z,96792.69
2023-05-05T13:21:15.430Z,96787.88
2023-05-05T13:23:45.734Z,96797.00
2023-05-05T13:26:13.565Z,96790.25
2023-05-05T13:28:40.618Z,96790.25
2023-05-05T13:31:08.318Z,96788.91
2023-05-05T13:33:35.420Z,96783.53
2023-05-05T13:36:04.909Z,96786.69
2023-05-05T13:38:33.110Z,96785.09
2023-05-05T13:41:00.083Z,96783.66
2023-05-05T13:43:26.654Z,96774.53
2023-05-05T13:45:55.908Z,96788.31
2023-05-05T13:48:25.289Z,96790.06
2023-05-05T13:50:53.817Z,96786.41
2023-05-05T13:53:20.329Z,96794.56
2023-05-05T13:55:52.843Z,96786.38
2023-05-05T13:58:19.649Z,96793.78
2023-05-05T14:00:46.528Z,96798.59
2023-05-05T14:03:13.098Z,96795.56
2023-05-05T14:05:42.834Z,96803.41
2023-05-05T14:08:13.364Z,96797.19
2023-05-05T14:10:40.447Z,96811.38
2023-05-05T14:13:07.348Z,96825.34
2023-05-05T14:15:34.017Z,96831.47
2023-05-05T14:18:00.636Z,96851.09
2023-05-05T14:20:35.044Z,96851.38
2023-05-05T14:23:01.474Z,96844.41
2023-05-05T14:25:27.937Z,96857.63
2023-05-05T14:27:54.992Z,96855.34
2023-05-05T14:30:29.336Z,96848.91
2023-05-05T14:32:56.886Z,96852.81
2023-05-05T14:35:23.516Z,96854.69
2023-05-05T14:37:53.253Z,96851.66
2023-05-05T14:40:19.886Z,96846.19
2023-05-05T14:42:46.494Z,96839.13
2023-05-05T14:45:12.979Z,96843.53
2023-05-05T14:47:39.480Z,96836.97
2023-05-05T14:50:11.839Z,96830.91
2023-05-05T14:52:41.702Z,96838.47
2023-05-05T14:55:09.024Z,96830.09
2023-05-05T14:57:35.811Z,96824.75
2023-05-05T15:00:02.314Z,96822.25
2023-05-05T15:02:29.962Z,96822.00
2023-05-05T15:04:56.539Z,96810.66
2023-05-05T15:07:28.254Z,96814.25
2023-05-05T15:09:58.081Z,96811.94
2023-05-05T15:12:26.061Z,96812.03
2023-05-05T15:14:52.745Z,96796.03
2023-05-05T15:17:19.291Z,96793.59
2023-05-05T15:19:45.910Z,96792.81
2023-05-05T15:22:12.354Z,96796.69
2023-05-05T15:24:38.940Z,96795.78
2023-05-05T15:27:05.541Z,96787.34
2023-05-05T15:29:32.216Z,96802.97
2023-05-05T15:31:58.768Z,96783.06
2023-05-05T15:34:26.194Z,96774.84
2023-05-05T15:36:54.516Z,96781.78
2023-05-05T15:39:21.213Z,96785.28
2023-05-05T15:41:47.781Z,96780.19
2023-05-05T15:44:14.258Z,96781.91
2023-05-05T15:46:42.726Z,96764.44
2023-05-05T15:49:09.372Z,96771.69
2023-05-05T15:51:41.086Z,96764.63
2023-05-05T15:54:07.777Z,96763.94
2023-05-05T15:56:36.524Z,96757.56
2023-05-05T15:59:03.335Z,96752.34
2023-05-05T16:01:29.968Z,96749.78
2023-05-05T16:03:57.876Z,96749.34
2023-05-05T16:06:24.494Z,96743.06
2023-05-05T16:08:59.021Z,96741.38
2023-05-05T16:11:29.057Z,96740.91
2023-05-05T16:13:55.552Z,96742.41
2023-05-05T16:16:22.143Z,96740.56
2023-05-05T16:18:48.743Z,96729.44
2023-05-05T16:21:15.316Z,96721.59
2023-05-05T16:23:43.391Z,96732.94
2023-05-05T16:26:09.893Z,96724.63
2023-05-05T16:28:38.740Z,96724.44
2023-05-05T16:31:09.532Z,96721.69
2023-05-05T16:33:40.916Z,96722.81
2023-05-05T16:36:08.728Z,96726.66
2023-05-05T16:38:35.343Z,96720.66
2023-05-05T16:41:01.925Z,96724.56
2023-05-05T16:43:29.603Z,96717.81
2023-05-05T16:45:56.345Z,96716.38
2023-05-05T16:48:22.812Z,96722.00
2023-05-05T16:51:15.181Z,96723.59
2023-05-05T16:53:43.786Z,96722.41
2023-05-05T16:56:14.122Z,96713.41
2023-05-05T16:58:44.689Z,96712.75
2023-05-05T17:01:11.186Z,96717.41
2023-05-05T17:03:39.030Z,96724.75
2023-05-05T17:06:06.784Z,96719.44
2023-05-05T17:08:33.234Z,96739.13
2023-05-05T17:10:59.654Z,96727.78
2023-05-05T17:13:26.184Z,96738.25
2023-05-05T17:15:52.718Z,96730.72
2023-05-05T17:18:22.681Z,96734.06
2023-05-05T17:20:49.419Z,96731.59
2023-05-05T17:23:21.804Z,96729.84
2023-05-05T17:25:48.365Z,96729.53
2023-05-05T17:28:15.795Z,96734.66
2023-05-05T17:30:42.362Z,96733.75
2023-05-05T17:33:08.904Z,96744.16
2023-05-05T17:35:37.776Z,96754.72
2023-05-05T17:38:06.319Z,96738.47
2023-05-05T17:40:32.761Z,96740.13
2023-05-05T17:42:59.276Z,96726.56
2023-05-05T17:45:27.840Z,96742.31
2023-05-05T17:47:54.328Z,96729.81
2023-05-05T17:50:20.819Z,96725.66
2023-05-05T17:52:47.274Z,96730.97
2023-05-05T17:55:15.755Z,96727.25
2023-05-05T17:57:43.604Z,96721.34
2023-05-05T18:00:10.383Z,96720.44
2023-05-05T18:02:37.170Z,96723.44
2023-05-05T18:05:12.021Z,96720.94
2023-05-05T18:07:38.797Z,96711.25
2023-05-05T18:10:07.102Z,96713.53
2023-05-05T18:12:33.891Z,96703.56
2023-05-05T18:15:02.552Z,96702.84
2023-05-05T18:17:30.043Z,96707.03
2023-05-05T18:19:56.588Z,96696.59
2023-05-05T18:22:23.140Z,96702.00
2023-05-05T18:24:49.648Z,96705.91
2023-05-05T18:27:18.109Z,96697.78
2023-05-05T18:29:44.652Z,96691.44
2023-05-05T18:32:25.746Z,96687.44
2023-05-05T18:34:52.301Z,96695.03
2023-05-05T18:37:18.759Z,96685.75
2023-05-05T18:39:45.340Z,96682.56
2023-05-05T18:42:13.068Z,96688.94
2023-05-05T18:44:40.009Z,96682.78
2023-05-05T18:47:06.897Z,96687.53
2023-05-05T18:49:33.937Z,96692.72
2023-05-05T18:52:00.571Z,96689.75
2023-05-05T18:54:27.066Z,96686.66
2023-05-05T18:56:53.508Z,96703.63
2023-05-05T18:59:19.967Z,96691.75
2023-05-05T19:01:53.449Z,96693.84
2023-05-05T19:04:30.695Z,96700.06
2023-05-05T19:06:58.373Z,96701.53
2023-05-05T19:09:24.905Z,96704.47
2023-05-05T19:11:51.495Z,96701.88
2023-05-05T19:14:18.056Z,96693.75
2023-05-05T19:16:44.692Z,96696.94
2023-05-05T19:19:11.231Z,96707.09
2023-05-05T19:21:38.945Z,96707.97
2023-05-05T19:24:08.037Z,96713.84
2023-05-05T19:26:34.611Z,96711.13
2023-05-05T19:29:02.145Z,96707.31
2023-05-05T19:31:30.737Z,96710.97
2023-05-05T19:34:06.220Z,96716.44
2023-05-05T19:36:33.850Z,96712.25
2023-05-05T19:39:01.869Z,96722.63
2023-05-05T19:41:29.289Z,96725.75
2023-05-05T19:43:55.728Z,96718.16
2023-05-05T19:46:25.506Z,96720.38
2023-05-05T19:48:52.382Z,96727.75
2023-05-05T19:51:18.886Z,96726.81
2023-05-05T19:53:45.842Z,96727.84
2023-05-05T19:56:12.454Z,96725.88
2023-05-05T19:58:55.889Z,96735.13
2023-05-05T20:01:22.470Z,96737.84
2023-05-05T20:03:49.251Z,96744.47
2023-05-05T20:06:16.854Z,96754.50
2023-05-05T20:08:43.354Z,96754.72
2023-05-05T20:11:09.895Z,96768.97
2023-05-05T20:13:39.086Z,96774.66
2023-05-05T20:16:06.498Z,96789.59
2023-05-05T20:18:34.035Z,96797.28
2023-05-05T20:21:02.594Z,96793.97
2023-05-05T20:23:29.227Z,96794.63
2023-05-05T20:25:56.615Z,96805.59
2023-05-05T20:28:23.410Z,96796.88
2023-05-05T20:30:51.913Z,96788.81
2023-05-05T20:33:18.453Z,96786.22
2023-05-05T20:35:44.891Z,96790.38
2023-05-05T20:38:12.439Z,96787.75
2023-05-05T20:40:40.092Z,96792.50
2023-05-05T20:43:06.623Z,96797.25
2023-05-05T20:45:37.274Z,96795.16
2023-05-05T20:48:05.321Z,96809.78
2023-05-05T20:50:32.146Z,96814.06
2023-05-05T20:52:58.926Z,96805.56
2023-05-05T20:55:25.763Z,96831.41
2023-05-05T20:57:52.392Z,96852.34
2023-05-05T21:00:19.246Z,96844.22
2023-05-05T21:02:49.896Z,96841.09
2023-05-05T21:05:16.741Z,96844.66
2023-05-05T21:07:44.482Z,96834.09
2023-05-05T21:10:11.419Z,96836.94
2023-05-05T21:12:40.298Z,96834.84
2023-05-05T21:15:08.339Z,96833.69
2023-05-05T21:17:35.089Z,96827.41
2023-05-05T21:20:01.712Z,96834.13
2023-05-05T21:22:36.328Z,96836.13
2023-05-05T21:25:13.705Z,96836.94
2023-05-05T21:27:40.527Z,96833.31
2023-05-05T21:30:10.634Z,96842.66
2023-05-05T21:32:38.430Z,96832.09
2023-05-05T21:35:06.340Z,96841.66
2023-05-05T21:37:36.441Z,96841.84
2023-05-05T21:40:03.178Z,96842.09
2023-05-05T21:42:30.697Z,96847.97
2023-05-05T21:44:57.186Z,96840.41
2023-05-05T21:47:23.665Z,96836.56
2023-05-05T21:49:50.322Z,96835.97
2023-05-05T21:52:17.260Z,96839.84
2023-05-05T21:54:43.878Z,96844.34
2023-05-05T21:57:10.412Z,96837.41
2023-05-05T21:59:36.956Z,96836.59
2023-05-05T22:02:10.499Z,96837.81
2023-05-05T22:04:36.968Z,96843.31
2023-05-05T22:07:03.476Z,96833.34
2023-05-05T22:09:29.939Z,96836.78
2023-05-05T22:11:59.555Z,96826.41
2023-05-05T22:14:26.064Z,96828.22
2023-05-05T22:16:52.553Z,96829.06
2023-05-05T22:19:19.034Z,96844.34
2023-05-05T22:21:45.509Z,96839.84
2023-05-05T22:24:11.982Z,96842.50
2023-05-05T22:26:43.258Z,96823.56
2023-05-05T22:29:10.660Z,96833.75
2023-05-05T22:31:42.285Z,96821.53
2023-05-05T22:34:08.829Z,96815.41
2023-05-05T22:36:35.363Z,96805.25
2023-05-05T22:39:01.827Z,96805.06
2023-05-05T22:41:36.208Z,96813.81
2023-05-05T22:44:02.730Z,96812.16
2023-05-05T22:46:33.502Z,96806.88
2023-05-05T22:49:00.122Z,96812.59
2023-05-05T22:51:27.865Z,96809.75
2023-05-05T22:53:55.381Z,96800.78
2023-05-05T22:56:21.814Z,96797.91
2023-05-05T22:58:48.572Z,96802.59
2023-05-05T23:01:15.056Z,96806.84
2023-05-05T23:03:41.615Z,96803.03
2023-05-05T23:06:08.154Z,96807.47
2023-05-05T23:08:34.689Z,96808.72
2023-05-05T23:11:03.128Z,96814.63
2023-05-05T23:13:29.600Z,96798.75
2023-05-05T23:15:58.072Z,96806.91
2023-05-05T23:18:24.634Z,96815.84
2023-05-05T23:20:52.171Z,96803.03
2023-05-05T23:23:18.636Z,96799.97
2023-05-05T23:25:51.455Z,96808.50
2023-05-05T23:28:22.588Z,96815.84
2023-05-05T23:30:56.080Z,96811.56
2023-05-05T23:33:22.691Z,96820.94
2023-05-05T23:35:49.184Z,96817.88
2023-05-05T23:38:16.171Z,96816.25
2023-05-05T23:40:42.666Z,96813.78
2023-05-05T23:43:09.437Z,96816.25
2023-05-05T23:45:35.969Z,96806.66
2023-05-05T23:48:02.489Z,96814.59
2023-05-05T23:50:30.185Z,96807.91
2023-05-05T23:52:56.992Z,96806.88
2023-05-05T23:55:23.525Z,96806.47
2023-05-05T23:57:52.213Z,96796.91
